Data for 04/18/2014

Time Sea-Level Adjusted Pressure Absolute Pressure Temperature Relative Humidity Dew Point   
(mb) (inHg) (mb) (inHg) (C) (F) (%) (C) (F)
00:05 1008 29.77 838 24.75 9.7 49.5 36 -4.8 23.4
00:10 1008 29.77 838 24.75 9.6 49.3 37 -4.3 24.2
00:15 1008 29.77 838 24.75 9.5 49.2 37 -4.5 23.8
00:20 1008 29.77 838 24.75 9.6 49.2 37 -4.5 23.9
00:25 1008 29.77 838 24.75 9.7 49.5 36 -4.6 23.7
00:30 1008 29.77 838 24.75 9.8 49.7 37 -4.1 24.6
00:35 1008 29.77 838 24.75 9.7 49.4 37 -4.3 24.3
00:40 1008 29.77 838 24.75 10.1 50.1 35 -4.7 23.6
00:45 1008 29.77 838 24.75 10.1 50.1 36 -4.4 24
00:50 1008 29.77 838 24.75 10.1 50.1 35 -4.6 23.7
00:55 1008 29.77 838 24.75 10 50 36 -4.2 24.5
01:00 1008 29.77 837 24.72 10.1 50.2 35 -4.6 23.7
01:05 1008 29.77 837 24.72 10.1 50.3 35 -4.5 24
01:10 1008 29.77 837 24.72 10.1 50.3 35 -4.7 23.5
01:15 1008 29.77 837 24.72 10.3 50.5 35 -4.5 23.9
01:20 1008 29.77 837 24.72 10.4 50.7 35 -4.3 24.2
01:25 1008 29.77 837 24.72 10.3 50.5 35 -4.6 23.8
01:30 1008 29.77 837 24.72 10.4 50.7 36 -4.2 24.5
01:35 1008 29.77 837 24.72 10.1 50.1 37 -4 24.8
01:40 1008 29.77 837 24.72 9.9 49.9 38 -3.7 25.3
01:45 1008 29.77 837 24.72 9.6 49.3 39 -3.7 25.4
01:50 1008 29.77 837 24.72 9.6 49.2 38 -3.9 25
01:55 1008 29.77 837 24.72 9.6 49.4 38 -3.9 24.9
02:00 1008 29.77 837 24.72 9.8 49.6 39 -3.6 25.5
02:05 1008 29.77 837 24.72 9.8 49.6 39 -3.6 25.5
02:10 1008 29.77 837 24.72 9.7 49.5 39 -3.6 25.4
02:15 1008 29.77 837 24.72 9.8 49.7 38 -3.8 25.2
02:20 1008 29.77 837 24.72 10 50 37 -3.9 24.9
02:25 1008 29.77 837 24.72 10.2 50.4 37 -3.9 24.9
02:30 1008 29.77 837 24.72 10.3 50.6 36 -3.9 24.9
02:35 1008 29.77 837 24.72 10.3 50.6 37 -3.8 25.1
02:40 1008 29.77 837 24.72 10.4 50.8 36 -3.9 25.1
02:45 1008 29.77 837 24.72 10.4 50.7 36 -3.9 25.1
02:50 1008 29.77 837 24.72 10.3 50.6 37 -3.7 25.4
02:55 1008 29.77 837 24.72 10.3 50.6 37 -3.8 25.1
03:00 1008 29.77 837 24.72 10.9 51.5 33 -4.7 23.5
03:05 1008 29.77 837 24.72 11.6 52.9 35 -3.3 26
03:10 1008 29.77 837 24.72 11.1 52.1 36 -3.3 26.1
03:15 1008 29.77 837 24.72 11 51.8 35 -3.7 25.3
03:20 1008 29.77 837 24.72 11 51.7 38 -2.6 27.3
03:25 1008 29.77 837 24.72 10 49.9 40 -3.1 26.3
03:30 1008 29.77 837 24.72 10 50 38 -3.7 25.4
03:35 1008 29.77 837 24.72 10.3 50.5 40 -2.8 27
03:40 1008 29.77 837 24.72 9.7 49.4 42 -2.6 27.3
03:45 1008 29.77 837 24.72 9.7 49.4 40 -3.4 25.9
03:50 1008 29.77 837 24.72 10.4 50.7 39 -3.1 26.5
03:55 1008 29.77 837 24.72 10.1 50.2 42 -2.1 28.2
04:00 1008 29.77 837 24.72 9.6 49.3 43 -2.2 28
04:05 1008 29.77 837 24.72 9.6 49.2 43 -2.2 28
04:10 1008 29.77 837 24.72 9.6 49.3 43 -2.4 27.8
04:15 1008 29.77 837 24.72 9.8 49.6 42 -2.5 27.4
04:20 1008 29.77 837 24.72 10.1 50.1 41 -2.6 27.3
04:25 1008 29.77 838 24.75 10.3 50.5 40 -2.5 27.4
04:30 1009 29.8 838 24.75 10.5 50.9 45 -0.9 30.4
04:35 1009 29.8 838 24.75 10.3 50.5 47 -0.4 31.3
04:40 1009 29.8 838 24.75 10.1 50.1 49 -0.1 31.9
04:45 1009 29.8 838 24.75 9.8 49.7 51 0.2 32.3
04:50 1009 29.8 838 24.75 9.7 49.4 52 0.3 32.5
04:55 1009 29.8 838 24.75 9.5 49.1 53 0.5 32.9
05:00 1009 29.8 838 24.75 9.4 49 55 0.9 33.7
05:05 1009 29.8 838 24.75 9.3 48.8 56 1.2 34.1
05:10 1009 29.8 838 24.75 9.2 48.6 58 1.5 34.7
05:15 1009 29.8 838 24.75 9.1 48.5 59 1.7 35
05:20 1009 29.8 838 24.75 9.1 48.3 61 2 35.5
05:25 1009 29.8 838 24.75 8.9 48 61 1.9 35.5
05:30 1009 29.8 838 24.75 8.8 47.8 63 2.2 35.9
05:35 1009 29.8 839 24.78 8.6 47.4 64 2.1 35.8
05:40 1009 29.8 839 24.78 8.3 46.9 65 2.1 35.7
05:45 1010 29.83 839 24.78 8 46.5 67 2.3 36.2
05:50 1010 29.83 839 24.78 7.8 46.1 71 2.9 37.2
05:55 1010 29.83 839 24.78 7.4 45.3 76 3.5 38.3
06:00 1010 29.83 839 24.78 7.1 44.7 78 3.6 38.4
06:05 1010 29.83 839 24.78 6.8 44.3 80 3.7 38.7
06:10 1010 29.83 839 24.78 6.5 43.8 83 3.8 38.9
06:15 1010 29.83 839 24.78 6.4 43.5 84 3.9 38.9
06:20 1010 29.83 839 24.78 6.3 43.4 83 3.7 38.7
06:25 1010 29.83 839 24.78 6.2 43.2 84 3.7 38.7
06:30 1010 29.83 839 24.78 6.3 43.3 84 3.7 38.7
06:35 1010 29.83 840 24.81 6.3 43.3 84 3.7 38.6
06:40 1010 29.83 840 24.81 6.3 43.3 85 3.9 39
06:45 1010 29.83 840 24.81 6.2 43.1 86 4 39.2
06:50 1010 29.83 840 24.81 6.1 43 87 4.1 39.3
06:55 1010 29.83 840 24.81 6 42.9 87 4.1 39.3
07:00 1011 29.85 840 24.81 5.9 42.7 87 3.9 39.1
07:05 1011 29.85 840 24.81 5.8 42.4 87 3.8 38.9
07:10 1011 29.85 840 24.81 5.7 42.3 88 3.9 39
07:15 1011 29.85 840 24.81 5.6 42.1 88 3.7 38.7
07:20 1011 29.85 840 24.81 5.5 42 87 3.5 38.4
07:25 1011 29.85 840 24.81 5.5 41.9 82 2.7 36.9
07:30 1011 29.85 840 24.81 5.4 41.8 83 2.7 36.9
07:35 1011 29.85 840 24.81 5.3 41.5 83 2.7 36.8
07:40 1011 29.85 840 24.81 5.2 41.3 85 2.8 37.1
07:45 1011 29.85 840 24.81 5.1 41.1 84 2.7 36.8
07:50 1011 29.85 840 24.81 5 41 84 2.5 36.6
07:55 1011 29.85 840 24.81 5 41 86 2.8 37.1
08:00 1011 29.85 840 24.81 5 41 87 2.9 37.3
08:05 1011 29.85 840 24.81 5 41 88 3.2 37.8
08:10 1011 29.85 841 24.83 4.9 40.9 88 3.1 37.6
08:15 1011 29.85 841 24.83 5 40.9 87 3 37.3
08:20 1011 29.85 840 24.81 4.9 40.8 87 2.8 37.1
08:25 1011 29.85 840 24.81 4.8 40.7 85 2.6 36.6
08:30 1011 29.85 840 24.81 4.7 40.4 87 2.7 36.9
08:35 1011 29.85 840 24.81 4.6 40.2 88 2.7 36.8
08:40 1011 29.85 840 24.81 4.5 40.1 87 2.5 36.5
08:45 1011 29.85 841 24.83 4.3 39.7 87 2.3 36.2
08:50 1011 29.85 841 24.83 4.2 39.5 88 2.3 36.2
08:55 1012 29.88 841 24.83 4 39.1 88 2.2 35.9
09:00 1011 29.85 841 24.83 3.8 38.9 87 1.8 35.3
09:05 1011 29.85 841 24.83 3.6 38.4 89 1.9 35.5
09:10 1011 29.85 840 24.81 3.4 38.1 90 1.9 35.4
09:15 1011 29.85 840 24.81 3.4 38.1 90 1.9 35.4
09:20 1011 29.85 840 24.81 3.4 38.2 91 2 35.7
09:25 1011 29.85 840 24.81 3.7 38.6 89 1.9 35.5
09:30 1011 29.85 840 24.81 4 39.2 87 1.9 35.5
09:35 1011 29.85 840 24.81 4.2 39.6 86 2 35.7
09:40 1011 29.85 840 24.81 4.4 39.9 86 2.3 36.1
09:45 1011 29.85 840 24.81 4.6 40.3 85 2.3 36.2
09:50 1011 29.85 840 24.81 4.8 40.6 85 2.5 36.5
09:55 1011 29.85 840 24.81 4.9 40.7 85 2.6 36.7
10:00 1011 29.85 840 24.81 4.9 40.9 83 2.3 36.2
10:05 1011 29.85 840 24.81 5 41.1 85 2.8 37
10:10 1011 29.85 840 24.81 5.2 41.4 82 2.5 36.5
10:15 1011 29.85 840 24.81 5.3 41.6 84 2.8 37
10:20 1011 29.85 840 24.81 5.4 41.7 83 2.8 37.1
10:25 1011 29.85 840 24.81 5.5 41.9 82 2.7 36.9
10:30 1011 29.85 840 24.81 5.7 42.2 81 2.7 36.8
10:35 1011 29.85 840 24.81 5.7 42.3 82 2.9 37.2
10:40 1011 29.85 840 24.81 5.9 42.6 79 2.5 36.4
10:45 1011 29.85 840 24.81 6.1 43 81 3.2 37.7
10:50 1011 29.85 840 24.81 6.6 43.9 79 3.3 37.9
10:55 1011 29.85 840 24.81 7 44.6 79 3.6 38.6
11:00 1010 29.83 840 24.81 7.2 44.9 76 3.3 38
11:05 1011 29.85 840 24.81 7.2 44.9 77 3.4 38.1
11:10 1011 29.85 840 24.81 7.2 44.9 77 3.4 38.2
11:15 1010 29.83 840 24.81 7.6 45.6 74 3.3 38
11:20 1010 29.83 840 24.81 8 46.3 70 2.9 37.2
11:25 1010 29.83 840 24.81 8.4 47.2 70 3.3 37.9
11:30 1010 29.83 840 24.81 9.5 49.1 70 4.3 39.7
11:35 1010 29.83 840 24.81 10.1 50.3 62 3.3 37.9
11:40 1010 29.83 840 24.81 10 50.1 66 4 39.3
11:45 1010 29.83 840 24.81 10 50 60 2.6 36.8
11:50 1010 29.83 839 24.78 10 50 59 2.4 36.3
11:55 1010 29.83 839 24.78 10 49.9 60 2.7 36.8
12:00 1010 29.83 839 24.78 10.4 50.7 51 0.8 33.5
12:05 1010 29.83 839 24.78 10.4 50.8 53 1.2 34.2
12:10 1010 29.83 839 24.78 11 51.8 43 -1.1 30
12:15 1010 29.83 839 24.78 11.4 52.5 41 -1.4 29.4
12:20 1010 29.83 839 24.78 11.9 53.4 37 -2.3 27.9
12:25 1010 29.83 839 24.78 12 53.6 38 -1.8 28.7
12:30 1010 29.83 839 24.78 12 53.6 38 -1.8 28.8
12:35 1010 29.83 839 24.78 11.7 53 36 -2.8 27
12:40 1010 29.83 839 24.78 12.4 54.4 31 -4.2 24.4
12:45 1010 29.83 839 24.78 12.9 55.3 28 -4.9 23.1
12:50 1010 29.83 839 24.78 13.1 55.6 30 -4 24.8
12:55 1009 29.8 839 24.78 13.3 56 31 -3.4 25.9
13:00 1009 29.8 839 24.78 12.8 55 33 -3 26.7
13:05 1010 29.83 839 24.78 12 53.6 35 -3.1 26.4
13:10 1010 29.83 839 24.78 11.6 52.9 37 -2.5 27.6
13:15 1010 29.83 839 24.78 11.2 52.1 37 -2.8 26.9
13:20 1009 29.8 839 24.78 11.5 52.7 35 -3.2 26.2
13:25 1009 29.8 839 24.78 12 53.6 36 -2.5 27.5
13:30 1009 29.8 839 24.78 11.9 53.4 36 -2.6 27.4
13:35 1009 29.8 839 24.78 11.8 53.3 38 -1.9 28.5
13:40 1009 29.8 839 24.78 11.6 52.9 41 -1.1 30.1
13:45 1009 29.8 838 24.75 11.4 52.5 39 -2.1 28.3
13:50 1009 29.8 838 24.75 11.4 52.5 33 -4.2 24.5
13:55 1009 29.8 838 24.75 11.8 53.2 32 -4.2 24.4
14:00 1009 29.8 838 24.75 12.4 54.4 32 -3.7 25.3
14:05 1009 29.8 838 24.75 12.9 55.1 21 -9.2 15.4
14:10 1009 29.8 838 24.75 13.4 56 24 -6.7 19.9
14:15 1009 29.8 838 24.75 13 55.4 33 -2.9 26.7
14:20 1009 29.8 838 24.75 11.8 53.3 38 -1.9 28.6
14:25 1009 29.8 838 24.75 11.1 52 38 -2.7 27.1
14:30 1009 29.8 839 24.78 10.6 51.1 38 -3.2 26.2
14:35 1010 29.83 839 24.78 10.5 50.8 38 -3.1 26.5
14:40 1010 29.83 839 24.78 10.2 50.3 42 -2.2 28.1
14:45 1010 29.83 839 24.78 9.2 48.6 45 -2.1 28.2
14:50 1010 29.83 839 24.78 8.8 47.8 45 -2.4 27.6
14:55 1010 29.83 840 24.81 8.7 47.7 45 -2.6 27.2
15:00 1011 29.85 840 24.81 8.6 47.5 44 -2.8 26.9
15:05 1011 29.85 840 24.81 9 48.2 43 -2.9 26.7
15:10 1011 29.85 840 24.81 8.8 47.8 44 -2.7 27.2
15:15 1011 29.85 841 24.83 8.4 47.2 45 -2.8 27
15:20 1012 29.88 841 24.83 8.4 47.1 46 -2.6 27.4
15:25 1012 29.88 841 24.83 8.4 47.2 44 -2.9 26.7
15:30 1012 29.88 841 24.83 8.4 47.2 45 -2.9 26.7
15:35 1012 29.88 841 24.83 8.6 47.6 42 -3.5 25.7
15:40 1012 29.88 842 24.86 9.1 48.4 40 -3.7 25.3
15:45 1012 29.88 842 24.86 9 48.3 37 -5 23
15:50 1013 29.91 842 24.86 8.8 47.9 34 -6.2 20.9
15:55 1013 29.91 842 24.86 9.1 48.4 32 -6.7 19.9
16:00 1013 29.91 842 24.86 9.7 49.5 31 -6.5 20.2
16:05 1013 29.91 842 24.86 9.7 49.5 30 -7.2 19.1
16:10 1012 29.88 842 24.86 9.2 48.5 29 -7.8 18
16:15 1012 29.88 842 24.86 8.9 48.1 30 -7.8 18
16:20 1013 29.91 842 24.86 8.8 47.8 28 -8.7 16.4
16:25 1013 29.91 842 24.86 8.4 47 29 -8.8 16.2
16:30 1013 29.91 842 24.86 8.5 47.2 27 -9.5 14.9
16:35 1013 29.91 842 24.86 8.5 47.2 27 -9.6 14.7
16:40 1013 29.91 842 24.86 8.4 47.2 26 -10.2 13.6
16:45 1013 29.91 842 24.86 8.4 47.1 24 -11.1 12
16:50 1013 29.91 842 24.86 8.5 47.3 22 -11.9 10.6
16:55 1013 29.91 842 24.86 8.6 47.5 22 -12.2 10
17:00 1013 29.91 842 24.86 8.8 47.8 20 -13.3 8.1
17:05 1013 29.91 842 24.86 8.8 47.8 19 -13.8 7.1
17:10 1013 29.91 842 24.86 8.8 47.9 19 -13.8 7.2
17:15 1013 29.91 842 24.86 8.9 48 19 -13.9 7
17:20 1013 29.91 842 24.86 8.8 47.8 19 -13.8 7.1
17:25 1013 29.91 842 24.86 8.8 47.9 19 -13.8 7.2
17:30 1013 29.91 842 24.86 8.8 47.9 18 -14.3 6.3
17:35 1013 29.91 842 24.86 8.5 47.4 19 -14.1 6.7
17:40 1013 29.91 842 24.86 8.2 46.8 19 -13.9 7
17:45 1013 29.91 842 24.86 8.1 46.6 19 -14 6.9
17:50 1013 29.91 843 24.89 8 46.3 20 -13.6 7.6
17:55 1013 29.91 843 24.89 7.9 46.2 21 -13.4 8
18:00 1013 29.91 843 24.89 7.9 46.1 20 -14 6.9
18:05 1014 29.94 843 24.89 7.7 45.8 20 -14.2 6.4
18:10 1014 29.94 843 24.89 7.5 45.6 20 -13.9 7
18:15 1014 29.94 843 24.89 7.4 45.4 21 -13.8 7.2
18:20 1014 29.94 843 24.89 7.3 45.1 21 -13.8 7.1
18:25 1014 29.94 843 24.89 7.1 44.8 20 -14.2 6.4
18:30 1014 29.94 843 24.89 6.9 44.5 20 -14.5 5.9
18:35 1014 29.94 843 24.89 6.8 44.3 21 -14.2 6.4
18:40 1014 29.94 843 24.89 6.7 44.1 21 -13.9 6.9
18:45 1014 29.94 844 24.92 6.7 44 22 -13.5 7.8
18:50 1014 29.94 844 24.92 6.6 43.9 22 -13.7 7.4
18:55 1014 29.94 844 24.92 6.5 43.6 23 -13.4 7.9
19:00 1015 29.97 844 24.92 6.2 43.2 23 -13.4 7.9
19:05 1015 29.97 844 24.92 6 42.8 23 -13.5 7.7
19:10 1015 29.97 844 24.92 5.8 42.5 22 -14.1 6.6
19:15 1015 29.97 844 24.92 5.8 42.4 22 -14.2 6.4
19:20 1015 29.97 844 24.92 5.7 42.3 23 -14.1 6.6
19:25 1015 29.97 844 24.92 5.6 42.1 23 -13.8 7.2
19:30 1015 29.97 845 24.95 5.4 41.8 24 -13.5 7.6
19:35 1016 30 845 24.95 5.3 41.5 24 -13.6 7.6
19:40 1016 30 845 24.95 5.1 41.1 25 -13.4 7.8
19:45 1016 30 845 24.95 4.9 40.8 30 -11.4 11.4
19:50 1016 30 845 24.95 4.4 39.9 28 -12.7 9.1
19:55 1016 30 845 24.95 4.6 40.2 26 -13.2 8.2
20:00 1016 30 845 24.95 4.7 40.5 28 -12.3 9.8
20:05 1016 30 845 24.95 4.8 40.6 25 -13.6 7.5
20:10 1016 30 845 24.95 5 41 25 -13.4 7.8
20:15 1016 30 846 24.98 5 41 26 -13.1 8.5
20:20 1016 30 846 24.98 4.8 40.7 26 -13.2 8.2
20:25 1016 30 846 24.98 4.8 40.6 26 -13.3 8.1
20:30 1016 30 845 24.95 5.1 41.1 24 -14 6.8
20:35 1016 30 845 24.95 5.1 41.2 25 -13.5 7.6
20:40 1016 30 845 24.95 5 40.9 25 -13.5 7.7
20:45 1016 30 845 24.95 4.8 40.7 25 -13.6 7.5
20:50 1016 30 845 24.95 4.7 40.5 26 -13.3 8.1
20:55 1016 30 845 24.95 4.5 40.2 27 -13 8.5
21:00 1016 30 845 24.95 4.4 39.9 28 -12.7 9.1
21:05 1016 30 845 24.95 4.1 39.3 28 -12.8 9
21:10 1016 30 845 24.95 3.9 39 28 -13.2 8.2
21:15 1016 30 845 24.95 4 39.2 27 -13.6 7.6
21:20 1016 30 845 24.95 4.1 39.3 27 -13.2 8.2
21:25 1016 30 845 24.95 3.7 38.6 30 -12.3 9.8
21:30 1016 30 845 24.95 3.2 37.8 32 -11.9 10.5
21:35 1016 30 845 24.95 2.6 36.8 38 -10.4 13.3
21:40 1016 30 845 24.95 2.6 36.6 37 -10.7 12.8
21:45 1016 30 845 24.95 2.8 37 37 -10.6 12.9
21:50 1016 30 845 24.95 2.6 36.7 37 -10.6 13
21:55 1016 30 846 24.98 2.5 36.4 33 -12.3 9.9
22:00 1016 30 846 24.98 2.9 37.2 31 -12.6 9.3
22:05 1016 30 846 24.98 3 37.5 30 -12.7 9.1
22:10 1016 30 846 24.98 3.2 37.8 30 -12.9 8.8
22:15 1016 30 846 24.98 3.5 38.2 28 -13.4 7.9
22:20 1016 30 846 24.98 3.5 38.4 28 -13.3 8.1
22:25 1016 30 846 24.98 3.6 38.5 28 -13.2 8.2
22:30 1016 30 846 24.98 3.7 38.6 29 -12.9 8.9
22:35 1017 30.03 846 24.98 3.5 38.2 28 -13.3 8.1
22:40 1017 30.03 846 24.98 3.3 38 27 -14.1 6.6
22:45 1017 30.03 846 24.98 3.5 38.3 29 -13.1 8.4
22:50 1017 30.03 846 24.98 3.4 38.1 26 -14.3 6.2
22:55 1017 30.03 846 24.98 3.8 38.9 26 -14.1 6.6
23:00 1017 30.03 846 24.98 3.9 39.1 28 -13 8.6
23:05 1017 30.03 846 24.98 3.5 38.4 35 -10.5 13.1
23:10 1017 30.03 846 24.98 2.6 36.7 34 -11.7 10.9
23:15 1017 30.03 846 24.98 2.5 36.6 40 -9.9 14.2
23:20 1017 30.03 846 24.98 1.9 35.4 43 -9.3 15.2
23:25 1017 30.03 846 24.98 1.3 34.4 39 -11.1 12.1
23:30 1017 30.03 846 24.98 1.7 35 39 -10.8 12.5
23:35 1017 30.03 846 24.98 1.7 35 44 -9.4 15.2
23:40 1017 30.03 846 24.98 1.4 34.6 43 -9.8 14.4
23:45 1017 30.03 846 24.98 1.7 35 37 -11.4 11.5
23:50 1017 30.03 846 24.98 2 35.6 37 -11.1 12.1
23:55 1017 30.03 846 24.98 2.1 35.8 38 -10.8 12.5
24:00 1017 30.03 846 24.98 2.1 35.8 38 -10.8 12.5